LAP weather

Manuel Márquez de León International Airport
La Paz, Baja California Sur, Mexico

Public forecast

Using degrees Celsius for public forecast. Weather courtesy of forecast.io.

METAR (pilot weather report)

Report is more than 2 hours old.

Retrieved 2019/04/25 04:44 UTC (6 hours ago):

MMLP 250444Z 18008KT 10SM SCT250 20/13 A2992 RMK 8/008

TAF (pilot weather forecast)

Forecast is more than 12 hours old.

Retrieved 2019/04/24 18:35 UTC (16 hours ago):

TAF MMLP 241614Z 2418/2518 02012KT P6SM SCT200 FM250300 23010KT P6SM SCT250